Time;durP1;ratioP1;P1;durP2;ratioP2;P2;SDS_P1;SDS_P2;PMS_P1;PMS_P2;Temp;Humidity;BMP_temperature;BMP_pressure;BME280_temperature;BME280_humidity;BME280_pressure;Samples;Min_cycle;Max_cycle;Signal;HPM_P1;HPM_P2
2022/12/23 00:00:03;;;;;;;1.27;1.10;;;;;;;18.84;45.87;100159.50;5043895;28;20045;-64
2022/12/23 00:02:28;;;;;;;2.35;1.30;;;;;;;18.83;45.88;100157.84;5043731;28;20380;-64
2022/12/23 00:04:54;;;;;;;1.35;1.25;;;;;;;18.83;45.81;100160.53;5043717;28;20040;-64
2022/12/23 00:07:19;;;;;;;1.80;1.33;;;;;;;18.74;45.96;100149.03;5043151;28;20372;-63
2022/12/23 00:09:44;;;;;;;1.30;1.15;;;;;;;18.82;45.89;100153.44;5044002;28;20359;-64
2022/12/23 00:15:05;;;;;;;1.30;1.20;;;;;;;18.80;45.38;100150.94;5032382;28;20029;-64
2022/12/23 00:17:44;;;;;;;1.42;1.33;;;;;;;18.76;45.84;100154.22;5038562;28;20028;-64
2022/12/23 00:20:12;;;;;;;1.10;1.00;;;;;;;18.79;45.89;100164.63;5043692;28;20075;-64
2022/12/23 00:25:39;;;;;;;1.40;1.30;;;;;;;18.78;45.79;100152.19;5043905;28;20035;-64
2022/12/23 00:28:16;;;;;;;1.45;1.30;;;;;;;18.76;45.68;100160.41;5043579;28;20029;-64
2022/12/23 00:30:46;;;;;;;1.30;1.20;;;;;;;18.76;45.83;100164.97;5042624;28;20022;-65
2022/12/23 00:33:14;;;;;;;1.30;1.20;;;;;;;18.71;45.79;100168.22;5043704;28;20108;-66
2022/12/23 00:35:39;;;;;;;1.50;1.10;;;;;;;18.74;45.96;100175.94;5043530;28;20025;-64
2022/12/23 00:38:04;;;;;;;1.77;1.20;;;;;;;18.72;45.62;100170.72;5043224;28;20111;-64
2022/12/23 00:43:13;;;;;;;0.90;0.90;;;;;;;18.70;45.68;100182.72;5043548;28;20037;-64
2022/12/23 00:45:39;;;;;;;1.17;1.05;;;;;;;18.72;45.78;100176.09;5058457;28;20025;-64
2022/12/23 00:50:50;;;;;;;1.52;1.30;;;;;;;18.71;46.07;100177.13;5046699;28;20056;-64
2022/12/23 00:53:15;;;;;;;1.17;1.08;;;;;;;18.70;45.44;100171.94;5046623;28;20026;-65
2022/12/23 00:55:41;;;;;;;1.13;1.02;;;;;;;18.69;45.72;100184.59;5047051;28;20059;-64
2022/12/23 00:58:06;;;;;;;1.23;1.13;;;;;;;18.47;45.80;100158.50;5046464;28;20796;-64
2022/12/23 01:05:59;;;;;;;2.25;1.50;;;;;;;18.68;45.74;100208.94;5046520;28;20032;-64
2022/12/23 01:08:25;;;;;;;0.90;0.90;;;;;;;18.67;45.95;100202.72;5046113;28;20025;-64
2022/12/23 01:10:51;;;;;;;1.40;1.30;;;;;;;18.66;46.03;100211.84;5045316;28;20029;-63
2022/12/23 01:13:16;;;;;;;1.10;1.05;;;;;;;18.67;45.88;100207.28;5046448;28;20032;-64
2022/12/23 01:15:41;;;;;;;1.13;1.02;;;;;;;18.63;45.90;100216.75;5027576;28;20037;-64
2022/12/23 01:18:07;;;;;;;1.65;1.10;;;;;;;18.65;45.55;100217.41;5045740;28;20109;-63
2022/12/23 01:20:32;;;;;;;1.58;1.25;;;;;;;18.65;45.85;100228.19;5046217;28;20037;-64
2022/12/23 01:22:57;;;;;;;1.30;1.13;;;;;;;18.42;45.78;100194.06;5045694;28;20041;-63
2022/12/23 01:25:22;;;;;;;1.02;1.00;;;;;;;18.64;45.88;100229.19;5046485;28;20083;-64
2022/12/23 01:27:48;;;;;;;1.75;1.10;;;;;;;18.64;45.84;100231.88;5046349;28;20025;-63
2022/12/23 01:30:13;;;;;;;1.10;0.95;;;;;;;18.63;45.67;100227.50;5046262;28;20029;-63
2022/12/23 01:32:38;;;;;;;1.05;0.95;;;;;;;18.62;45.86;100232.06;5046437;28;20026;-63
2022/12/23 01:35:04;;;;;;;1.13;1.02;;;;;;;18.55;45.70;100224.91;5046289;28;20489;-63
2022/12/23 01:37:29;;;;;;;1.70;1.20;;;;;;;18.62;45.86;100236.63;5045500;28;20029;-64
2022/12/23 01:39:54;;;;;;;1.20;1.10;;;;;;;18.60;45.73;100242.16;5046222;28;20040;-64
2022/12/23 01:45:10;;;;;;;1.17;1.08;;;;;;;18.59;45.47;100245.88;5046064;28;20405;-64
2022/12/23 01:47:56;;;;;;;1.30;1.20;;;;;;;18.59;45.74;100250.44;5045087;28;20053;-64
2022/12/23 01:50:25;;;;;;;1.38;1.27;;;;;;;18.59;45.76;100258.50;5044553;28;20033;-64
2022/12/23 01:53:00;;;;;;;1.15;1.05;;;;;;;18.52;45.74;100249.47;5045299;28;20026;-63
2022/12/23 01:55:28;;;;;;;1.02;1.00;;;;;;;18.51;45.85;100264.81;5044714;28;20022;-64
2022/12/23 01:57:54;;;;;;;1.15;1.05;;;;;;;18.56;45.75;100275.84;5044009;28;20025;-63
2022/12/23 02:05:47;;;;;;;1.55;1.30;;;;;;;18.49;45.95;100269.53;5045613;28;20060;-63
2022/12/23 02:11:10;;;;;;;1.20;1.10;;;;;;;18.54;45.94;100277.91;5044458;28;20079;-63
2022/12/23 02:16:39;;;;;;;0.93;0.90;;;;;;;18.53;46.26;100278.09;5044710;28;20091;-64
2022/12/23 02:19:12;;;;;;;0.88;0.88;;;;;;;18.48;45.89;100279.47;5045440;28;20021;-63
2022/12/23 02:21:47;;;;;;;1.20;1.10;;;;;;;18.51;45.74;100286.34;5043708;28;20079;-63
2022/12/23 02:24:26;;;;;;;1.10;1.00;;;;;;;18.47;45.68;100285.84;5044986;28;20024;-63
2022/12/23 02:27:08;;;;;;;1.20;1.10;;;;;;;18.51;46.05;100301.66;5044999;28;20056;-63
2022/12/23 02:29:45;;;;;;;1.20;1.10;;;;;;;18.50;45.85;100290.06;5045306;28;20037;-63
2022/12/23 02:32:45;;;;;;;1.17;1.05;;;;;;;18.48;45.68;100295.63;5045137;28;20032;-64
2022/12/23 02:35:10;;;;;;;1.13;1.00;;;;;;;18.48;45.76;100309.09;5045029;28;20025;-63
2022/12/23 02:37:39;;;;;;;1.30;1.20;;;;;;;18.47;45.62;100315.47;5059717;28;20053;-63
2022/12/23 02:40:18;;;;;;;1.08;1.00;;;;;;;18.47;45.73;100320.84;5060603;28;20025;-64
2022/12/23 02:43:03;;;;;;;1.45;1.20;;;;;;;18.47;45.80;100323.53;5044617;28;20037;-65
2022/12/23 02:45:42;;;;;;;1.70;0.90;;;;;;;18.46;45.89;100327.25;5044170;28;20116;-65
2022/12/23 02:48:13;;;;;;;1.00;0.90;;;;;;;18.46;45.89;100332.66;5044694;28;20115;-65
2022/12/23 02:50:39;;;;;;;1.27;1.17;;;;;;;18.47;45.75;100333.47;5043278;28;20029;-64
2022/12/23 02:53:20;;;;;;;1.00;0.80;;;;;;;18.31;45.85;100321.00;5042839;28;20053;-64
2022/12/23 02:55:47;;;;;;;1.08;0.98;;;;;;;18.43;45.96;100345.63;5043621;28;20165;-65
2022/12/23 02:58:15;;;;;;;1.20;1.10;;;;;;;18.45;45.77;100349.00;5043023;28;20049;-65
2022/12/23 03:00:41;;;;;;;1.42;1.20;;;;;;;18.44;46.03;100355.41;5043218;28;20033;-64
2022/12/23 03:03:07;;;;;;;1.10;1.00;;;;;;;18.42;45.69;100352.84;5044292;28;20534;-64
2022/12/23 03:05:42;;;;;;;0.90;0.90;;;;;;;18.18;45.58;100310.81;5044410;28;20033;-64
2022/12/23 03:08:17;;;;;;;1.15;1.05;;;;;;;18.43;45.55;100353.69;5042617;28;20084;-64
2022/12/23 03:10:54;;;;;;;1.20;1.10;;;;;;;18.42;45.82;100358.25;5044058;28;20053;-64
2022/12/23 03:13:26;;;;;;;1.40;1.08;;;;;;;18.42;45.71;100358.25;5042631;28;20052;-64
2022/12/23 03:16:04;;;;;;;1.20;1.10;;;;;;;18.40;45.54;100360.28;5043631;28;20470;-64
2022/12/23 03:18:47;;;;;;;1.15;0.95;;;;;;;18.40;45.86;100362.16;5024397;28;20172;-64
2022/12/23 03:21:30;;;;;;;1.55;1.40;;;;;;;18.40;45.76;100362.16;5023236;28;20117;-64
2022/12/23 03:24:19;;;;;;;1.58;1.00;;;;;;;18.37;45.65;100357.94;5039320;28;20022;-64
2022/12/23 03:26:48;;;;;;;;;;;;;;;18.38;45.75;100362.31;5024667;28;20057;-64
2022/12/23 03:29:26;;;;;;;1.17;1.00;;;;;;;18.38;45.82;100361.47;5023637;28;19909;-64
2022/12/23 03:31:53;;;;;;;0.90;0.85;;;;;;;18.34;45.55;100369.06;5039622;28;20033;-64
2022/12/23 03:34:21;;;;;;;1.10;1.00;;;;;;;18.34;45.95;100366.38;5039661;28;20026;-65
2022/12/23 03:36:53;;;;;;;1.02;0.90;;;;;;;18.33;45.74;100367.41;5024184;28;20026;-65
2022/12/23 03:39:21;;;;;;;1.33;0.95;;;;;;;18.28;45.74;100359.03;5039518;28;20018;-65
2022/12/23 03:41:52;;;;;;;1.20;1.02;;;;;;;18.33;45.46;100363.88;5040915;28;20040;-65
2022/12/23 03:44:27;;;;;;;1.10;1.00;;;;;;;18.33;45.61;100361.19;5042583;28;20610;-66
2022/12/23 03:47:04;;;;;;;0.93;0.90;;;;;;;18.32;45.59;100354.97;5043537;28;20032;-67
2022/12/23 03:49:34;;;;;;;1.42;1.00;;;;;;;18.31;45.81;100364.06;5042705;28;20113;-66
2022/12/23 03:52:03;;;;;;;;;;;;;;;18.31;45.69;100364.06;5042800;28;20056;-67
2022/12/23 03:54:32;;;;;;;1.13;0.93;;;;;;;18.31;45.99;100360.50;5042706;28;19909;-66
2022/12/23 03:57:01;;;;;;;0.80;0.75;;;;;;;18.30;45.76;100362.34;5043691;28;20029;-65
2022/12/23 03:59:33;;;;;;;0.85;0.85;;;;;;;18.29;45.64;100360.69;5042904;28;20100;-64
2022/12/23 04:02:27;;;;;;;1.38;0.95;;;;;;;18.29;45.60;100373.31;5044019;28;20034;-64
2022/12/23 04:04:53;;;;;;;1.00;0.90;;;;;;;18.27;45.90;100376.19;5027772;28;20041;-64
2022/12/23 04:07:22;;;;;;;1.20;1.10;;;;;;;18.28;45.59;100379.72;5043413;28;20028;-65
2022/12/23 04:09:51;;;;;;;0.80;0.80;;;;;;;18.27;45.85;100381.56;5042425;28;20096;-65
2022/12/23 04:12:16;;;;;;;1.03;0.93;;;;;;;18.23;45.57;100373.00;5042155;28;20029;-64
2022/12/23 04:14:46;;;;;;;1.63;0.90;;;;;;;18.27;45.74;100383.44;5032291;28;20104;-64
2022/12/23 04:17:12;;;;;;;1.23;0.80;;;;;;;18.26;45.58;100379.88;5038676;28;20037;-64
2022/12/23 04:19:37;;;;;;;1.10;1.00;;;;;;;18.25;45.63;100386.28;5024065;28;20435;-64
2022/12/23 04:22:02;;;;;;;1.00;0.80;;;;;;;18.24;45.82;100388.13;5024928;28;20026;-64
2022/12/23 04:24:28;;;;;;;1.15;0.98;;;;;;;18.25;45.79;100397.03;5027217;28;20026;-64
2022/12/23 04:26:53;;;;;;;1.30;1.00;;;;;;;18.25;45.88;100402.44;5027664;28;20026;-64
2022/12/23 04:29:18;;;;;;;1.52;1.42;;;;;;;18.24;45.75;100406.13;5026244;28;20022;-64
2022/12/23 04:31:44;;;;;;;0.90;0.80;;;;;;;18.23;45.93;100399.09;5027367;28;20053;-64
2022/12/23 04:34:09;;;;;;;0.98;0.90;;;;;;;18.23;45.76;100408.00;5027802;28;20479;-65
2022/12/23 04:36:34;;;;;;;1.85;1.20;;;;;;;18.24;45.74;100420.44;5045552;28;20114;-64
2022/12/23 04:38:59;;;;;;;1.05;1.00;;;;;;;18.24;45.83;100431.19;5047198;28;20033;-64
2022/12/23 04:41:25;;;;;;;1.10;1.00;;;;;;;18.24;45.66;100419.59;5047231;28;20025;-64
2022/12/23 04:43:50;;;;;;;1.17;1.08;;;;;;;18.23;45.56;100432.22;5047134;28;20037;-65
2022/12/23 04:46:15;;;;;;;1.23;0.95;;;;;;;18.23;45.92;100432.22;5046667;28;20167;-65
2022/12/23 04:48:40;;;;;;;1.15;0.90;;;;;;;18.23;45.56;100434.06;5046739;28;20073;-64
2022/12/23 04:51:06;;;;;;;1.27;1.10;;;;;;;18.22;45.73;100438.63;5046749;28;20471;-64
2022/12/23 04:53:31;;;;;;;2.35;1.75;;;;;;;18.18;45.63;100428.34;5046268;28;20060;-64
2022/12/23 04:55:56;;;;;;;1.20;1.10;;;;;;;18.22;45.86;100435.91;5047168;28;20025;-64
2022/12/23 04:58:23;;;;;;;1.27;1.00;;;;;;;18.23;45.63;100436.75;5046918;28;20410;-66
2022/12/23 05:00:49;;;;;;;1.13;1.02;;;;;;;18.19;45.60;100430.03;5047022;28;20083;-65
2022/12/23 05:03:14;;;;;;;1.33;1.10;;;;;;;18.23;45.92;100440.28;5046822;28;20508;-65
2022/12/23 05:05:43;;;;;;;1.38;1.13;;;;;;;18.24;45.76;100427.66;5046519;28;20033;-65
2022/12/23 05:08:08;;;;;;;1.15;1.00;;;;;;;18.21;45.65;100422.63;5046000;28;20029;-65
2022/12/23 05:10:33;;;;;;;1.33;1.08;;;;;;;18.24;45.62;100417.72;5046327;28;20045;-65
2022/12/23 05:12:59;;;;;;;1.00;0.90;;;;;;;18.26;45.53;100416.72;5046559;28;20044;-64
2022/12/23 05:15:24;;;;;;;1.23;1.05;;;;;;;18.25;45.75;100418.56;5045819;28;20022;-64
2022/12/23 05:17:49;;;;;;;1.58;1.23;;;;;;;18.24;45.77;100416.91;5046440;28;20033;-64
2022/12/23 05:20:14;;;;;;;1.48;1.10;;;;;;;18.25;45.78;100421.25;5046643;28;20061;-64
2022/12/23 05:22:40;;;;;;;1.35;1.13;;;;;;;18.24;45.48;100424.97;5045755;28;20039;-65
2022/12/23 05:25:05;;;;;;;1.30;1.20;;;;;;;18.24;45.59;100423.13;5046233;28;20025;-65
2022/12/23 05:27:31;;;;;;;1.25;1.05;;;;;;;18.22;45.60;100433.22;5045972;28;20036;-64
2022/12/23 05:29:56;;;;;;;1.20;1.00;;;;;;;18.23;45.75;100447.53;5046384;28;20029;-64
2022/12/23 05:32:21;;;;;;;1.92;1.40;;;;;;;18.23;45.76;100455.59;5045916;28;20493;-64
2022/12/23 05:34:47;;;;;;;2.28;1.30;;;;;;;18.22;45.52;100453.88;5045909;28;20025;-64
2022/12/23 05:37:12;;;;;;;1.33;1.20;;;;;;;18.22;45.63;100453.88;5045952;28;20022;-64
2022/12/23 05:39:37;;;;;;;1.33;1.15;;;;;;;18.20;45.61;100453.25;5046007;28;20024;-63
2022/12/23 05:42:03;;;;;;;1.40;1.17;;;;;;;18.21;45.68;100457.59;5045803;28;20029;-63
2022/12/23 05:44:28;;;;;;;1.30;1.20;;;;;;;18.22;45.62;100453.88;5045990;28;20026;-64
2022/12/23 05:46:53;;;;;;;1.95;1.25;;;;;;;18.22;45.67;100462.84;5045528;28;20037;-64
2022/12/23 05:49:18;;;;;;;2.05;1.23;;;;;;;18.19;45.64;100460.47;5043052;28;20045;-63
2022/12/23 05:51:44;;;;;;;1.73;1.23;;;;;;;18.22;45.89;100468.22;5042811;28;20025;-63
2022/12/23 05:54:09;;;;;;;1.30;1.15;;;;;;;18.24;45.75;100468.88;5045033;28;20142;-63
2022/12/23 05:56:34;;;;;;;1.13;1.02;;;;;;;18.26;45.97;100467.84;5045235;28;20025;-63
2022/12/23 05:58:59;;;;;;;2.40;1.00;;;;;;;18.26;45.88;100467.84;5044618;28;20067;-63
2022/12/23 06:01:25;;;;;;;1.75;1.20;;;;;;;18.26;45.99;100463.28;5045474;28;20437;-63
2022/12/23 06:03:50;;;;;;;1.35;1.20;;;;;;;18.28;45.77;100473.91;5044423;28;20125;-62
2022/12/23 06:06:15;;;;;;;1.20;1.10;;;;;;;18.28;45.74;100472.06;5044023;28;20030;-62
2022/12/23 06:08:40;;;;;;;1.25;1.00;;;;;;;18.28;45.91;100465.84;5041815;28;20037;-62
2022/12/23 06:11:06;;;;;;;1.45;1.02;;;;;;;18.30;45.75;100466.47;5043854;28;20026;-62
2022/12/23 06:13:31;;;;;;;1.30;1.05;;;;;;;18.31;45.85;100468.16;5044492;28;20014;-62
2022/12/23 06:15:56;;;;;;;2.00;1.10;;;;;;;18.30;45.98;100470.00;5043981;28;20032;-63
2022/12/23 06:18:22;;;;;;;1.85;1.30;;;;;;;18.31;45.72;100471.72;5044693;28;20463;-62
2022/12/23 06:20:47;;;;;;;1.30;1.00;;;;;;;18.33;45.90;100474.22;5044322;28;20061;-63
2022/12/23 06:23:12;;;;;;;2.53;1.70;;;;;;;18.33;46.04;100471.53;5044310;28;20017;-63
2022/12/23 06:25:38;;;;;;;1.63;0.98;;;;;;;18.26;46.14;100457.91;5044318;28;20079;-62
2022/12/23 06:28:04;;;;;;;1.42;1.20;;;;;;;18.34;45.96;100471.34;5043544;28;20081;-63
2022/12/23 06:30:29;;;;;;;2.25;1.10;;;;;;;18.36;46.02;100480.09;5043739;28;20025;-62
2022/12/23 06:32:54;;;;;;;2.67;1.17;;;;;;;18.37;46.05;100481.75;5044024;28;20079;-62
2022/12/23 06:35:19;;;;;;;1.17;1.08;;;;;;;18.38;45.94;100487.97;5043716;28;20029;-62
2022/12/23 06:37:45;;;;;;;1.30;0.90;;;;;;;18.39;46.19;100487.81;5043173;28;20029;-63
2022/12/23 06:40:10;;;;;;;2.10;1.20;;;;;;;18.40;46.04;100483.28;5043714;28;20025;-62
2022/12/23 06:42:36;;;;;;;1.63;1.20;;;;;;;18.41;46.00;100485.78;5043646;28;20120;-63
2022/12/23 06:45:01;;;;;;;1.20;1.00;;;;;;;18.41;46.31;100477.69;5042981;28;20029;-63
2022/12/23 06:47:26;;;;;;;0.98;0.95;;;;;;;18.42;45.92;100483.91;5042744;28;21894;-62
2022/12/23 06:49:52;;;;;;;1.95;1.00;;;;;;;18.40;46.12;100475.19;5043399;28;20750;-62
2022/12/23 06:52:17;;;;;;;1.38;1.10;;;;;;;18.44;46.15;100477.34;5043289;28;20034;-63
2022/12/23 06:54:42;;;;;;;1.20;0.95;;;;;;;18.43;46.10;100483.72;5043259;28;20017;-62
2022/12/23 06:57:08;;;;;;;2.67;1.17;;;;;;;18.38;46.07;100475.34;5044129;28;20041;-63
2022/12/23 06:59:33;;;;;;;2.45;0.90;;;;;;;18.45;46.27;100489.78;5043773;28;20029;-62
2022/12/23 07:01:58;;;;;;;1.75;1.02;;;;;;;18.45;46.28;100500.56;5043886;28;20029;-62
2022/12/23 07:04:23;;;;;;;1.33;1.10;;;;;;;18.46;45.99;100496.00;5041908;28;20029;-62
2022/12/23 07:06:49;;;;;;;1.27;0.85;;;;;;;18.48;46.15;100496.69;5043416;28;20025;-63
2022/12/23 07:09:14;;;;;;;1.42;1.02;;;;;;;18.48;45.98;100507.47;5042832;28;20030;-62
2022/12/23 07:11:39;;;;;;;2.35;1.23;;;;;;;18.48;46.04;100512.84;5043878;28;20023;-63
2022/12/23 07:14:05;;;;;;;1.25;1.00;;;;;;;18.46;46.23;100518.38;5043198;28;20021;-63
2022/12/23 07:16:30;;;;;;;2.47;1.45;;;;;;;18.47;46.01;100514.66;5043008;28;20033;-62
2022/12/23 07:18:55;;;;;;;1.10;1.00;;;;;;;18.49;46.11;100525.28;5043047;28;20025;-63
2022/12/23 07:21:20;;;;;;;2.88;1.00;;;;;;;18.49;45.96;100526.13;5043564;28;20028;-62
2022/12/23 07:23:46;;;;;;;0.80;0.80;;;;;;;18.49;45.98;100514.50;5042466;28;20025;-62
2022/12/23 07:26:12;;;;;;;1.33;1.20;;;;;;;18.39;46.10;100514.72;5043100;28;20532;-62
2022/12/23 07:28:37;;;;;;;1.00;0.90;;;;;;;18.52;45.90;100537.53;5042679;28;20032;-62
2022/12/23 07:31:05;;;;;;;2.10;1.10;;;;;;;18.51;46.06;100538.56;5043011;28;20036;-62
2022/12/23 07:33:30;;;;;;;1.35;1.02;;;;;;;18.51;46.41;100542.09;5043386;28;20017;-62
2022/12/23 07:35:58;;;;;;;1.00;0.80;;;;;;;18.48;46.28;100529.84;5042765;28;20029;-63
2022/12/23 07:38:24;;;;;;;1.90;1.10;;;;;;;18.48;46.21;100532.53;5040491;28;20467;-62
2022/12/23 07:40:49;;;;;;;2.08;1.00;;;;;;;18.49;46.50;100533.34;5042963;28;20061;-62
2022/12/23 07:43:14;;;;;;;6.10;1.40;;;;;;;18.47;46.34;100535.38;5042869;28;20029;-62
2022/12/23 07:45:40;;;;;;;2.00;1.40;;;;;;;18.39;46.45;100525.50;5042096;28;20037;-62
2022/12/23 07:48:05;;;;;;;1.05;0.90;;;;;;;18.47;46.33;100527.28;5042523;28;20482;-62
2022/12/23 07:50:30;;;;;;;1.15;0.93;;;;;;;18.50;46.56;100537.72;5042817;28;20084;-62
2022/12/23 07:52:56;;;;;;;0.70;0.70;;;;;;;18.49;46.63;100539.59;5041785;28;20076;-62
2022/12/23 07:55:21;;;;;;;1.30;1.00;;;;;;;18.49;46.58;100549.50;5042611;28;20025;-62
2022/12/23 07:57:50;;;;;;;1.50;1.27;;;;;;;18.49;46.40;100538.75;5043348;28;20040;-62
2022/12/23 08:00:16;;;;;;;1.95;1.10;;;;;;;18.47;46.33;100540.75;5046319;28;20029;-62
2022/12/23 08:02:42;;;;;;;1.60;1.20;;;;;;;18.43;46.54;100537.56;5047212;28;20029;-62
2022/12/23 08:05:08;;;;;;;1.50;1.00;;;;;;;18.49;46.26;100541.44;5046723;28;20060;-62
2022/12/23 08:07:33;;;;;;;2.67;1.00;;;;;;;18.47;46.48;100536.22;5046282;28;20025;-62
2022/12/23 08:09:58;;;;;;;1.33;0.82;;;;;;;18.49;46.45;100531.50;5046466;28;20029;-62
2022/12/23 08:12:24;;;;;;;1.48;0.80;;;;;;;18.47;46.40;100520.06;5046828;28;20037;-62
2022/12/23 08:14:51;;;;;;;2.25;0.95;;;;;;;18.52;46.37;100526.78;5046384;28;20077;-62
2022/12/23 08:17:17;;;;;;;2.97;0.90;;;;;;;18.51;46.31;100527.78;5046255;28;20081;-62
2022/12/23 08:19:42;;;;;;;1.08;0.98;;;;;;;18.52;46.32;100519.56;5046240;28;20025;-62
2022/12/23 08:22:07;;;;;;;0.90;0.82;;;;;;;18.52;46.32;100514.19;5046347;28;20049;-62
2022/12/23 08:24:33;;;;;;;2.15;0.77;;;;;;;18.53;46.47;100515.00;5045908;28;20057;-62
2022/12/23 08:26:58;;;;;;;1.65;0.90;;;;;;;18.50;46.31;100508.09;5046355;28;20021;-62
2022/12/23 08:29:23;;;;;;;0.93;0.82;;;;;;;18.54;46.40;100514.81;5045740;28;20040;-62
2022/12/23 08:31:49;;;;;;;0.70;0.70;;;;;;;18.54;46.28;100514.00;5046258;28;20084;-62
2022/12/23 08:34:14;;;;;;;1.45;1.00;;;;;;;18.56;46.38;100514.63;5044929;28;20013;-62
2022/12/23 08:36:40;;;;;;;1.95;1.33;;;;;;;18.58;46.21;100513.47;5046097;28;20035;-61
2022/12/23 08:39:07;;;;;;;1.38;0.80;;;;;;;18.61;46.20;100510.41;5045952;28;20025;-62
2022/12/23 08:41:36;;;;;;;0.77;0.77;;;;;;;18.62;45.89;100501.31;5046619;28;20057;-62
2022/12/23 08:44:01;;;;;;;1.77;0.90;;;;;;;18.62;46.22;100500.50;5046630;28;20032;-62
2022/12/23 08:46:27;;;;;;;0.70;0.70;;;;;;;18.62;46.26;100495.09;5045888;28;20037;-62
2022/12/23 08:48:53;;;;;;;2.13;1.15;;;;;;;18.61;45.92;100498.81;5061969;28;20045;-62
2022/12/23 08:51:22;;;;;;;1.38;1.00;;;;;;;18.60;46.04;100508.72;5040967;28;20026;-62
2022/12/23 08:53:47;;;;;;;1.45;1.08;;;;;;;18.58;46.24;100505.38;5060784;28;20120;-62
2022/12/23 08:56:19;;;;;;;1.00;0.80;;;;;;;18.59;46.04;100500.84;5046058;28;20025;-63
2022/12/23 08:58:46;;;;;;;1.30;0.90;;;;;;;18.60;45.89;100503.34;5046560;28;20529;-62
2022/12/23 09:01:13;;;;;;;1.85;0.90;;;;;;;18.61;46.12;100498.81;5046137;28;20037;-62
2022/12/23 09:03:39;;;;;;;0.80;0.80;;;;;;;18.60;45.84;100480.97;5045849;28;20029;-62
2022/12/23 09:06:06;;;;;;;0.70;0.70;;;;;;;18.60;46.11;100473.72;5045467;28;20024;-62
2022/12/23 09:08:31;;;;;;;1.10;0.90;;;;;;;18.60;45.88;100471.03;5043687;28;20097;-63
2022/12/23 09:10:57;;;;;;;1.65;0.82;;;;;;;18.65;46.01;100467.81;5042606;28;20052;-63
2022/12/23 09:13:22;;;;;;;1.30;0.98;;;;;;;18.67;45.89;100455.84;5047724;28;20026;-62
2022/12/23 09:15:47;;;;;;;1.98;1.02;;;;;;;18.69;46.12;100453.88;5045046;28;20025;-62
2022/12/23 09:18:12;;;;;;;2.35;0.80;;;;;;;18.70;45.91;100457.38;5049605;28;20026;-62
2022/12/23 09:20:38;;;;;;;1.73;1.10;;;;;;;18.70;45.96;100443.94;5047757;28;20036;-63
2022/12/23 09:23:04;;;;;;;1.33;1.00;;;;;;;18.78;46.06;100462.72;5044539;28;20029;-63
2022/12/23 09:25:30;;;;;;;1.35;0.82;;;;;;;18.78;45.84;100465.41;5047296;28;20026;-63
2022/12/23 09:27:55;;;;;;;1.25;1.00;;;;;;;18.80;45.80;100471.44;5046064;28;20040;-62
2022/12/23 09:30:20;;;;;;;1.00;0.90;;;;;;;18.82;45.95;100461.34;5049555;28;20057;-62
2022/12/23 09:32:45;;;;;;;1.25;1.10;;;;;;;18.82;45.68;100457.78;5044646;28;20451;-62
2022/12/23 09:35:11;;;;;;;0.98;0.88;;;;;;;18.80;45.75;100449.91;5050840;28;20029;-62
2022/12/23 09:37:36;;;;;;;3.05;0.93;;;;;;;18.84;46.00;100453.09;5048731;28;20033;-62
2022/12/23 09:40:02;;;;;;;1.73;0.93;;;;;;;18.83;45.66;100444.16;5043756;28;20041;-62
2022/12/23 09:42:43;;;;;;;1.73;1.30;;;;;;;18.85;45.67;100446.66;5043378;28;20026;-61
2022/12/23 09:45:18;;;;;;;1.55;0.95;;;;;;;18.83;46.06;100454.94;5051438;28;20109;-63
2022/12/23 09:47:43;;;;;;;1.80;1.08;;;;;;;18.81;46.22;100456.97;5044268;28;20053;-62
2022/12/23 09:50:24;;;;;;;1.83;1.13;;;;;;;18.81;46.13;100450.75;5042845;28;20031;-61
2022/12/23 09:53:01;;;;;;;1.70;1.33;;;;;;;18.80;46.52;100460.69;5040919;28;20030;-63
2022/12/23 09:55:47;;;;;;;2.05;0.95;;;;;;;18.80;46.43;100454.47;5043557;28;20017;-63
2022/12/23 09:58:25;;;;;;;3.00;1.30;;;;;;;18.78;46.30;100446.56;5053992;28;20046;-63
2022/12/23 10:01:30;;;;;;;2.42;1.27;;;;;;;18.79;46.56;100444.72;5050462;28;20029;-62
2022/12/23 10:04:01;;;;;;;2.35;1.40;;;;;;;18.79;46.75;100439.31;5044403;28;20029;-62
2022/12/23 10:06:28;;;;;;;3.10;1.45;;;;;;;18.81;46.45;100439.97;5047118;28;20029;-62
2022/12/23 10:08:59;;;;;;;2.05;1.60;;;;;;;18.78;46.55;100421.50;5070103;28;20067;-63
2022/12/23 10:11:27;;;;;;;2.05;1.80;;;;;;;18.84;46.44;100428.84;5033245;28;20033;-63
2022/12/23 10:13:57;;;;;;;2.00;1.63;;;;;;;18.83;46.54;100428.00;5063170;28;20401;-63
2022/12/23 10:16:26;;;;;;;2.38;1.60;;;;;;;18.86;46.28;100424.97;5046098;28;20052;-63
2022/12/23 10:19:14;;;;;;;2.95;1.33;;;;;;;18.88;46.41;100422.91;5044894;28;20056;-64
2022/12/23 10:21:45;;;;;;;3.35;1.42;;;;;;;18.90;46.16;100415.50;5039259;28;20014;-61
2022/12/23 10:24:25;;;;;;;2.25;1.48;;;;;;;18.91;46.44;100409.09;5046318;28;20025;-63
2022/12/23 10:26:55;;;;;;;3.47;1.65;;;;;;;18.91;46.12;100401.00;5042792;28;20021;-63
2022/12/23 10:29:24;;;;;;;;;;;;;;;18.93;46.19;100393.56;5052839;28;20417;-62
2022/12/23 10:31:52;;;;;;;;;;;;;;;18.96;46.18;100387.00;5041725;28;19965;-64
2022/12/23 10:34:36;;;;;;;2.80;1.48;;;;;;;18.95;45.90;100388.84;5049446;28;20437;-62
2022/12/23 10:37:05;;;;;;;2.10;1.45;;;;;;;18.94;45.82;100373.69;5051325;28;20037;-63
2022/12/23 10:40:16;;;;;;;1.58;1.20;;;;;;;18.98;45.98;100382.25;5048925;28;20065;-62
2022/12/23 10:43:15;;;;;;;2.42;1.70;;;;;;;18.98;46.06;100379.56;5056447;28;20050;-65
2022/12/23 10:46:05;;;;;;;1.92;1.30;;;;;;;19.00;46.00;100360.53;5040158;28;20029;-62
2022/12/23 10:48:52;;;;;;;3.03;1.38;;;;;;;18.98;45.89;100358.84;5030279;28;20695;-62
2022/12/23 10:51:42;;;;;;;2.25;1.60;;;;;;;18.94;45.93;100343.22;5041922;28;20044;-63
2022/12/23 10:54:11;;;;;;;2.45;1.77;;;;;;;18.97;45.88;100362.56;5041482;28;20056;-63
2022/12/23 10:56:37;;;;;;;2.35;1.42;;;;;;;18.96;45.88;100355.50;5056559;28;20490;-63
2022/12/23 10:59:04;;;;;;;2.50;1.40;;;;;;;18.97;46.03;100348.25;5044146;28;20033;-63
2022/12/23 11:01:30;;;;;;;2.10;1.60;;;;;;;18.97;46.12;100353.63;5042899;28;20040;-62
2022/12/23 11:04:13;;;;;;;3.83;1.70;;;;;;;18.95;46.04;100350.31;5043895;28;20026;-62
2022/12/23 11:06:42;;;;;;;4.30;1.90;;;;;;;18.95;46.10;100345.75;5042574;28;20033;-62
2022/12/23 11:09:11;;;;;;;;;;;;;;;18.95;46.24;100339.53;5042481;28;20044;-62
2022/12/23 11:12:00;;;;;;;3.30;1.58;;;;;;;18.94;46.17;100337.84;5049952;28;19917;-63
2022/12/23 11:14:34;;;;;;;2.72;1.60;;;;;;;18.94;46.15;100332.44;5041877;28;20089;-62
2022/12/23 11:17:00;;;;;;;1.92;1.45;;;;;;;18.94;45.79;100335.97;5043100;28;20025;-62
2022/12/23 11:19:25;;;;;;;2.47;1.70;;;;;;;18.96;46.03;100331.25;5043207;28;20067;-61
2022/12/23 11:21:58;;;;;;;3.33;2.00;;;;;;;18.95;45.88;100328.75;5038447;28;20080;-62
2022/12/23 11:24:26;;;;;;;3.60;2.10;;;;;;;18.96;45.99;100314.25;5057561;28;20029;-61
2022/12/23 11:27:00;;;;;;;3.08;2.08;;;;;;;18.92;46.35;100316.47;5042217;28;20048;-61
2022/12/23 11:29:32;;;;;;;3.47;1.98;;;;;;;18.87;46.51;100305.41;5055719;28;20017;-62
2022/12/23 11:31:58;;;;;;;4.00;2.20;;;;;;;18.87;46.76;100305.41;5041744;28;20009;-62
2022/12/23 11:34:24;;;;;;;3.90;1.98;;;;;;;18.87;46.68;100304.59;5042692;28;20056;-62
2022/12/23 11:36:57;;;;;;;2.70;2.25;;;;;;;18.85;47.03;100301.22;5042944;28;20048;-62
2022/12/23 11:39:27;;;;;;;7.40;3.08;;;;;;;18.86;46.96;100297.50;5045847;28;20383;-62
2022/12/23 11:41:55;;;;;;;3.83;2.33;;;;;;;18.84;46.73;100291.47;5025841;28;20498;-63
2022/12/23 11:44:29;;;;;;;3.28;2.35;;;;;;;18.87;46.69;100289.25;5041643;28;20478;-61
2022/12/23 11:46:55;;;;;;;5.40;2.38;;;;;;;18.88;46.69;100295.47;5029858;28;20036;-61
2022/12/23 11:49:23;;;;;;;4.30;2.75;;;;;;;18.66;46.74;100254.09;5041878;28;20113;-61
2022/12/23 11:52:03;;;;;;;3.70;2.70;;;;;;;18.87;46.75;100296.50;5041175;28;20029;-61
2022/12/23 11:54:29;;;;;;;5.10;2.47;;;;;;;18.87;47.09;100289.25;5042732;28;20029;-62
2022/12/23 11:56:55;;;;;;;4.82;2.83;;;;;;;18.88;46.66;100287.41;5039607;28;20033;-63
2022/12/23 11:59:34;;;;;;;7.15;3.05;;;;;;;18.89;46.99;100275.59;5033633;28;20057;-63
2022/12/23 12:02:03;;;;;;;6.43;3.45;;;;;;;18.89;46.91;100265.66;5064934;28;20021;-63
2022/12/23 12:04:32;;;;;;;4.57;2.88;;;;;;;18.92;46.68;100261.75;5045775;28;20017;-63